createdAt,value
2022-12-03T00:06:48.106Z,1013.26
2022-12-03T00:16:48.129Z,1013.26
2022-12-03T00:26:48.488Z,1013.27
2022-12-03T00:36:48.526Z,1013.24
2022-12-03T00:46:48.925Z,1013.24
2022-12-03T00:56:49.021Z,1013.20
2022-12-03T01:06:49.315Z,1013.21
2022-12-03T01:16:52.492Z,1013.21
2022-12-03T01:26:49.702Z,1013.19
2022-12-03T01:36:49.759Z,1013.14
2022-12-03T01:46:50.103Z,1013.09
2022-12-03T01:56:50.262Z,1013.06
2022-12-03T02:06:50.319Z,1013.11
2022-12-03T02:16:50.564Z,1013.13
2022-12-03T02:26:50.904Z,1013.12
2022-12-03T02:36:51.010Z,1013.09
2022-12-03T02:46:51.175Z,1013.11
2022-12-03T02:56:51.136Z,1013.15
2022-12-03T03:06:51.361Z,1013.14
2022-12-03T03:16:51.621Z,1013.31
2022-12-03T03:26:52.747Z,1013.24
2022-12-03T03:36:51.784Z,1013.38
2022-12-03T03:46:52.070Z,1013.30
2022-12-03T03:56:52.164Z,1013.35
2022-12-03T04:06:52.448Z,1013.34
2022-12-03T04:16:52.515Z,1013.27
2022-12-03T04:26:52.608Z,1013.27
2022-12-03T04:36:52.848Z,1013.19
2022-12-03T04:46:53.179Z,1013.30
2022-12-03T04:56:53.273Z,1013.32
2022-12-03T05:06:53.351Z,1013.29
2022-12-03T05:16:53.392Z,1013.38
2022-12-03T05:26:53.734Z,1013.32
2022-12-03T05:36:53.757Z,1013.20
2022-12-03T05:46:54.083Z,1013.14
2022-12-03T05:56:54.131Z,1013.24
2022-12-03T06:06:54.357Z,1013.32
2022-12-03T06:16:54.382Z,1013.30
2022-12-03T06:26:54.737Z,1013.26
2022-12-03T06:36:54.773Z,1013.17
2022-12-03T06:46:55.178Z,1013.29
2022-12-03T06:56:55.247Z,1013.31
2022-12-03T07:06:55.576Z,1013.31
2022-12-03T07:16:55.601Z,1013.31
2022-12-03T07:26:55.938Z,1013.26
2022-12-03T07:36:55.974Z,1013.28
2022-12-03T07:46:56.379Z,1013.20
2022-12-03T07:57:01.127Z,1013.20
2022-12-03T08:06:57.490Z,1013.23
2022-12-03T08:16:56.814Z,1013.12
2022-12-03T08:26:56.892Z,1013.13
2022-12-03T08:37:00.311Z,1013.12
2022-12-03T08:46:57.333Z,1013.12
2022-12-03T08:56:57.602Z,1013.14
2022-12-03T09:06:57.834Z,1013.21
2022-12-03T09:16:58.227Z,1013.15
2022-12-03T09:26:58.328Z,1013.14
2022-12-03T09:36:58.645Z,1013.09
2022-12-03T09:46:58.872Z,1013.01
2022-12-03T09:56:58.917Z,1012.89
2022-12-03T10:06:59.167Z,1012.77
2022-12-03T10:16:59.723Z,1012.64
2022-12-03T10:26:59.640Z,1012.46
2022-12-03T10:36:59.957Z,1012.39
2022-12-03T10:47:00.261Z,1012.17
2022-12-03T10:57:00.128Z,1012.06
2022-12-03T11:07:00.360Z,1012.02
2022-12-03T11:17:00.601Z,1011.90
2022-12-03T11:27:00.757Z,1011.78
2022-12-03T11:37:02.067Z,1011.77
2022-12-03T11:47:02.084Z,1011.62
2022-12-03T11:57:01.552Z,1011.56
2022-12-03T12:07:01.571Z,1011.29
2022-12-03T12:17:01.911Z,1011.34
2022-12-03T12:27:01.945Z,1011.17
2022-12-03T12:37:02.184Z,1011.16
2022-12-03T12:47:02.460Z,1011.03
2022-12-03T12:57:02.754Z,1010.99
2022-12-03T13:07:02.779Z,1010.99
2022-12-03T13:17:03.020Z,1010.91
2022-12-03T13:27:03.253Z,1010.87
2022-12-03T13:37:03.603Z,1010.92
2022-12-03T13:47:03.659Z,1010.82
2022-12-03T13:57:06.135Z,1010.85
2022-12-03T14:07:05.285Z,1010.70
2022-12-03T14:17:04.437Z,1010.76
2022-12-03T14:27:04.518Z,1010.70
2022-12-03T14:37:04.806Z,1010.73
2022-12-03T14:47:04.839Z,1010.78
2022-12-03T14:57:05.081Z,1010.73
2022-12-03T15:07:05.314Z,1010.76
2022-12-03T15:17:05.689Z,1010.84
2022-12-03T15:27:05.761Z,1010.78
2022-12-03T15:37:06.021Z,1010.88
2022-12-03T15:47:06.437Z,1010.84
2022-12-03T15:57:08.262Z,1010.77
2022-12-03T16:07:06.764Z,1010.72
2022-12-03T16:17:08.318Z,1010.69
2022-12-03T16:27:07.420Z,1010.73
2022-12-03T16:37:07.341Z,1010.66
2022-12-03T16:47:07.585Z,1010.58
2022-12-03T16:57:08.151Z,1010.51
2022-12-03T17:07:08.063Z,1010.46
2022-12-03T17:17:08.408Z,1010.44
2022-12-03T17:27:08.713Z,1010.39
2022-12-03T17:37:08.859Z,1010.36
2022-12-03T17:47:09.502Z,1010.35
2022-12-03T17:57:09.176Z,1010.23
2022-12-03T18:07:09.262Z,1010.21
2022-12-03T18:17:09.235Z,1010.08
2022-12-03T18:27:09.289Z,1009.95
2022-12-03T18:37:12.639Z,1009.96
2022-12-03T18:47:09.954Z,1009.84
2022-12-03T18:57:10.178Z,1009.96
2022-12-03T19:07:10.984Z,1010.01
2022-12-03T19:17:11.507Z,1009.94
2022-12-03T19:27:10.390Z,1009.98
2022-12-03T19:37:10.879Z,1009.96
2022-12-03T19:47:32.144Z,1009.87
2022-12-03T19:57:11.222Z,1009.83
2022-12-03T20:07:11.494Z,1009.82
2022-12-03T20:17:11.627Z,1009.83
2022-12-03T20:27:11.847Z,1009.88
2022-12-03T20:37:11.781Z,1009.80
2022-12-03T20:47:12.271Z,1009.72
2022-12-03T20:57:12.407Z,1009.72
2022-12-03T21:07:12.595Z,1009.69
2022-12-03T21:17:12.539Z,1009.70
2022-12-03T21:27:15.707Z,1009.69
2022-12-03T21:37:14.027Z,1009.71
2022-12-03T21:47:15.391Z,1009.54
2022-12-03T21:57:13.171Z,1009.45
2022-12-03T22:07:13.556Z,1009.47
2022-12-03T22:17:13.596Z,1009.38
2022-12-03T22:27:13.933Z,1009.48
2022-12-03T22:37:13.966Z,1009.47
2022-12-03T22:47:14.287Z,1009.33
2022-12-03T22:57:14.324Z,1009.24
2022-12-03T23:07:14.671Z,1009.26
2022-12-03T23:17:14.704Z,1009.12
2022-12-03T23:27:15.056Z,1009.24
2022-12-03T23:37:15.092Z,1009.29
2022-12-03T23:47:15.410Z,1009.31
2022-12-03T23:57:15.460Z,1009.18
